createdAt,value
2023-01-29T00:02:27.061Z,3.62
2023-01-29T00:04:58.908Z,3.63
2023-01-29T00:07:27.108Z,3.54
2023-01-29T00:09:55.411Z,3.51
2023-01-29T00:12:24.546Z,3.47
2023-01-29T00:14:52.315Z,3.47
2023-01-29T00:17:20.123Z,3.47
2023-01-29T00:19:47.953Z,3.48
2023-01-29T00:22:15.680Z,3.50
2023-01-29T00:24:44.265Z,3.58
2023-01-29T00:27:11.984Z,3.48
2023-01-29T00:29:41.655Z,3.47
2023-01-29T00:32:09.479Z,3.37
2023-01-29T00:34:38.140Z,3.44
2023-01-29T00:37:08.840Z,3.36
2023-01-29T00:39:47.481Z,3.40
2023-01-29T00:42:34.502Z,3.27
2023-01-29T00:45:04.672Z,3.35
2023-01-29T00:47:35.549Z,3.41
2023-01-29T00:50:06.858Z,3.49
2023-01-29T00:52:36.416Z,3.51
2023-01-29T00:55:06.920Z,3.58
2023-01-29T00:57:36.855Z,3.50
2023-01-29T01:00:10.225Z,3.55
2023-01-29T01:02:56.783Z,3.56
2023-01-29T01:05:25.117Z,3.61
2023-01-29T01:07:57.411Z,3.45
2023-01-29T01:10:30.307Z,3.51
2023-01-29T01:13:02.388Z,3.46
2023-01-29T01:15:36.535Z,3.51
2023-01-29T01:18:05.207Z,3.36
2023-01-29T01:20:35.707Z,3.29
2023-01-29T01:23:04.316Z,3.27
2023-01-29T01:25:32.312Z,3.33
2023-01-29T01:28:03.204Z,3.48
2023-01-29T01:30:33.052Z,3.47
2023-01-29T01:33:01.655Z,3.56
2023-01-29T01:35:29.756Z,3.32
2023-01-29T01:37:57.615Z,3.26
2023-01-29T01:40:26.763Z,3.31
2023-01-29T01:42:57.245Z,3.34
2023-01-29T01:45:29.880Z,3.28
2023-01-29T01:48:06.646Z,3.35
2023-01-29T01:50:42.638Z,3.20
2023-01-29T01:53:16.909Z,3.04
2023-01-29T01:55:52.577Z,2.94
2023-01-29T01:58:29.340Z,2.81
2023-01-29T02:00:57.895Z,2.89
2023-01-29T02:03:50.020Z,2.96
2023-01-29T02:06:36.543Z,2.87
2023-01-29T02:09:32.005Z,2.95
2023-01-29T02:12:00.823Z,2.94
2023-01-29T02:14:28.891Z,2.75
2023-01-29T02:16:56.834Z,2.75
2023-01-29T02:19:45.823Z,2.95
2023-01-29T02:22:41.944Z,2.83
2023-01-29T02:25:42.796Z,2.87
2023-01-29T02:28:25.676Z,2.85
2023-01-29T02:31:06.228Z,2.81
2023-01-29T02:33:52.037Z,2.84
2023-01-29T02:36:34.834Z,2.89
2023-01-29T02:39:17.077Z,2.98
2023-01-29T02:41:56.034Z,2.88
2023-01-29T02:44:37.401Z,3.05
2023-01-29T02:47:18.874Z,3.15
2023-01-29T02:49:55.601Z,3.21
2023-01-29T02:52:33.000Z,3.31
2023-01-29T02:55:12.544Z,3.42
2023-01-29T02:57:44.492Z,3.31
2023-01-29T03:00:21.598Z,3.33
2023-01-29T03:02:59.223Z,3.44
2023-01-29T03:05:32.993Z,3.44
2023-01-29T03:08:10.450Z,3.43
2023-01-29T03:10:45.840Z,3.27
2023-01-29T03:13:21.610Z,3.25
2023-01-29T03:16:01.645Z,3.14
2023-01-29T03:18:54.178Z,3.21
2023-01-29T03:21:49.555Z,3.31
2023-01-29T03:24:45.083Z,3.38
2023-01-29T03:27:35.385Z,3.32
2023-01-29T03:30:28.125Z,3.28
2023-01-29T03:33:12.218Z,3.43
2023-01-29T03:35:48.609Z,3.53
2023-01-29T03:38:17.121Z,3.52
2023-01-29T03:40:54.968Z,3.53
2023-01-29T03:43:33.909Z,3.46
2023-01-29T03:46:11.719Z,3.30
2023-01-29T03:48:54.376Z,3.31
2023-01-29T03:51:30.011Z,3.31
2023-01-29T03:54:09.790Z,3.35
2023-01-29T03:56:57.062Z,3.35
2023-01-29T03:59:39.388Z,3.29
2023-01-29T04:02:27.607Z,3.37
2023-01-29T04:05:10.237Z,3.21
2023-01-29T04:08:00.760Z,3.15
2023-01-29T04:10:30.679Z,3.12
2023-01-29T04:13:04.444Z,3.20
2023-01-29T04:15:43.437Z,3.09
2023-01-29T04:18:11.854Z,3.10
2023-01-29T04:21:01.590Z,3.31
2023-01-29T04:23:30.153Z,3.27
2023-01-29T04:26:24.456Z,3.21
2023-01-29T04:29:16.210Z,3.17
2023-01-29T04:31:59.958Z,3.33
2023-01-29T04:34:35.315Z,3.21
2023-01-29T04:37:22.376Z,3.17
2023-01-29T04:40:00.111Z,3.06
2023-01-29T04:42:37.240Z,3.10
2023-01-29T04:45:20.739Z,3.09
2023-01-29T04:48:01.148Z,3.04
2023-01-29T04:50:38.153Z,3.21
2023-01-29T04:53:18.598Z,3.30
2023-01-29T04:55:51.260Z,3.20
2023-01-29T04:58:32.002Z,3.27
2023-01-29T05:01:04.973Z,3.22
2023-01-29T05:03:36.932Z,3.18
2023-01-29T05:06:08.000Z,3.08
2023-01-29T05:08:39.775Z,3.09
2023-01-29T05:11:08.343Z,3.11
2023-01-29T05:13:41.721Z,3.18
2023-01-29T05:16:19.137Z,2.87
2023-01-29T05:18:47.826Z,2.93
2023-01-29T05:21:15.762Z,2.99
2023-01-29T05:23:53.191Z,3.03
2023-01-29T05:26:40.634Z,3.03
2023-01-29T05:29:08.641Z,3.03
2023-01-29T05:31:36.438Z,2.92
2023-01-29T05:34:04.206Z,2.94
2023-01-29T05:36:32.046Z,2.82
2023-01-29T05:39:01.225Z,2.79
2023-01-29T05:41:29.020Z,2.82
2023-01-29T05:43:57.069Z,2.78
2023-01-29T05:46:25.205Z,2.81
2023-01-29T05:48:53.316Z,2.68
2023-01-29T05:51:21.209Z,2.77
2023-01-29T05:53:49.091Z,2.65
2023-01-29T05:56:18.390Z,2.76
2023-01-29T05:58:46.345Z,2.85
2023-01-29T06:01:17.968Z,2.76
2023-01-29T06:03:46.521Z,2.78
2023-01-29T06:06:15.585Z,2.72
2023-01-29T06:08:43.625Z,2.84
2023-01-29T06:11:13.839Z,2.78
2023-01-29T06:13:43.081Z,2.81
2023-01-29T06:16:13.525Z,2.95
2023-01-29T06:18:42.064Z,3.06
2023-01-29T06:21:13.034Z,2.94
2023-01-29T06:23:41.345Z,2.97
2023-01-29T06:26:13.631Z,2.91
2023-01-29T06:28:45.078Z,3.00
2023-01-29T06:31:33.015Z,2.94
2023-01-29T06:34:00.675Z,3.01
2023-01-29T06:36:28.434Z,3.04
2023-01-29T06:38:56.244Z,3.13
2023-01-29T06:41:25.561Z,3.21
2023-01-29T06:43:54.886Z,3.20
2023-01-29T06:46:22.672Z,3.22
2023-01-29T06:48:50.596Z,3.20
2023-01-29T06:51:18.693Z,3.22
2023-01-29T06:53:46.980Z,3.36
2023-01-29T06:56:14.983Z,3.28
2023-01-29T06:58:43.698Z,3.37
2023-01-29T07:01:25.346Z,3.43
2023-01-29T07:04:02.958Z,3.26
2023-01-29T07:06:31.987Z,3.16
2023-01-29T07:09:00.308Z,3.24
2023-01-29T07:11:28.168Z,3.18
2023-01-29T07:13:56.132Z,3.17
2023-01-29T07:16:26.274Z,3.23
2023-01-29T07:18:54.594Z,3.22
2023-01-29T07:21:22.481Z,3.26
2023-01-29T07:23:50.544Z,2.98
2023-01-29T07:26:18.358Z,3.16
2023-01-29T07:28:46.387Z,3.22
2023-01-29T07:31:15.447Z,3.11
2023-01-29T07:33:45.298Z,3.13
2023-01-29T07:36:14.142Z,3.22
2023-01-29T07:38:42.053Z,3.19
2023-01-29T07:41:11.740Z,3.22
2023-01-29T07:43:39.590Z,3.29
2023-01-29T07:46:07.796Z,3.28
2023-01-29T07:48:36.468Z,3.35
2023-01-29T07:51:06.726Z,3.42
2023-01-29T07:53:34.612Z,3.44
2023-01-29T07:56:03.285Z,3.47
2023-01-29T07:58:31.215Z,3.56
2023-01-29T08:00:58.985Z,3.42
2023-01-29T08:03:26.847Z,3.50
2023-01-29T08:05:54.581Z,3.48
2023-01-29T08:08:23.760Z,3.37
2023-01-29T08:10:51.621Z,3.51
2023-01-29T08:13:19.460Z,3.61
2023-01-29T08:15:47.355Z,3.57
2023-01-29T08:18:15.537Z,3.57
2023-01-29T08:20:43.496Z,3.66
2023-01-29T08:23:14.974Z,3.62
2023-01-29T08:25:44.724Z,3.52
2023-01-29T08:28:12.651Z,3.31
2023-01-29T08:30:41.471Z,3.44
2023-01-29T08:33:09.632Z,3.42
2023-01-29T08:35:38.814Z,3.31
2023-01-29T08:38:06.662Z,3.44
2023-01-29T08:40:35.114Z,3.22
2023-01-29T08:43:09.484Z,3.31
2023-01-29T08:45:41.192Z,3.29
2023-01-29T08:48:10.261Z,3.24
2023-01-29T08:50:38.446Z,3.34
2023-01-29T08:53:08.759Z,3.45
2023-01-29T08:55:39.394Z,3.32
2023-01-29T08:58:12.330Z,3.36
2023-01-29T09:00:40.157Z,3.36
2023-01-29T09:03:08.268Z,3.49
2023-01-29T09:05:37.677Z,3.35
2023-01-29T09:08:06.777Z,3.40
2023-01-29T09:10:35.693Z,3.44
2023-01-29T09:13:04.786Z,3.40
2023-01-29T09:15:33.920Z,3.51
2023-01-29T09:18:04.327Z,3.43
2023-01-29T09:20:33.004Z,3.49
2023-01-29T09:23:05.367Z,3.46
2023-01-29T09:25:33.273Z,3.45
2023-01-29T09:28:01.243Z,3.45
2023-01-29T09:30:29.401Z,3.41
2023-01-29T09:33:00.926Z,3.35
2023-01-29T09:35:28.986Z,3.44
2023-01-29T09:37:57.115Z,3.52
2023-01-29T09:40:30.621Z,3.52
2023-01-29T09:43:04.406Z,3.62
2023-01-29T09:45:33.367Z,3.59
2023-01-29T09:48:05.744Z,3.69
2023-01-29T09:50:39.866Z,3.74
2023-01-29T09:53:19.987Z,3.74
2023-01-29T09:55:56.498Z,3.74
2023-01-29T09:58:31.295Z,3.85
2023-01-29T10:01:13.914Z,3.91
2023-01-29T10:04:19.380Z,4.06
2023-01-29T10:07:11.500Z,4.04
2023-01-29T10:10:08.245Z,3.95
2023-01-29T10:12:51.535Z,3.94
2023-01-29T10:15:38.578Z,4.05
2023-01-29T10:18:41.502Z,4.07
2023-01-29T10:21:32.104Z,3.89
2023-01-29T10:24:17.993Z,3.79
2023-01-29T10:26:46.253Z,3.74
2023-01-29T10:29:19.643Z,3.84
2023-01-29T10:31:55.224Z,3.95
2023-01-29T10:34:33.298Z,3.89
2023-01-29T10:37:31.238Z,3.92
2023-01-29T10:40:00.934Z,3.90
2023-01-29T10:42:39.342Z,4.15
2023-01-29T10:45:21.230Z,4.27
2023-01-29T10:48:42.828Z,4.37
2023-01-29T10:51:28.673Z,4.41
2023-01-29T10:54:20.090Z,4.59
2023-01-29T10:57:06.916Z,4.46
2023-01-29T11:00:01.126Z,4.58
2023-01-29T11:02:29.217Z,4.43
2023-01-29T11:04:57.004Z,4.46
2023-01-29T11:07:27.683Z,4.39
2023-01-29T11:10:07.731Z,4.43
2023-01-29T11:12:38.891Z,4.45
2023-01-29T11:15:19.847Z,4.43
2023-01-29T11:18:11.446Z,4.54
2023-01-29T11:20:41.627Z,4.31
2023-01-29T11:23:27.298Z,4.40
2023-01-29T11:25:58.587Z,4.58
2023-01-29T11:28:41.150Z,4.61
2023-01-29T11:31:22.982Z,4.51
2023-01-29T11:34:01.113Z,4.51
2023-01-29T11:36:38.044Z,4.33
2023-01-29T11:39:17.871Z,4.55
2023-01-29T11:41:55.885Z,4.47
2023-01-29T11:44:31.172Z,4.46
2023-01-29T11:47:17.140Z,4.43
2023-01-29T11:49:49.748Z,4.47
2023-01-29T11:52:21.100Z,4.54
2023-01-29T11:54:55.192Z,4.61
2023-01-29T11:57:31.970Z,4.54
2023-01-29T12:00:05.070Z,4.54
2023-01-29T12:02:42.411Z,4.61
2023-01-29T12:05:17.151Z,4.73
2023-01-29T12:07:51.465Z,4.60
2023-01-29T12:10:35.453Z,4.55
2023-01-29T12:13:26.854Z,4.50
2023-01-29T12:16:15.581Z,4.38
2023-01-29T12:18:53.139Z,4.43
2023-01-29T12:21:33.439Z,4.59
2023-01-29T12:24:12.970Z,4.47
2023-01-29T12:26:51.952Z,4.54
2023-01-29T12:29:40.738Z,4.67
2023-01-29T12:32:26.431Z,4.61
2023-01-29T12:35:04.645Z,4.66
2023-01-29T12:37:45.305Z,4.72
2023-01-29T12:40:17.529Z,4.70
2023-01-29T12:42:50.418Z,4.60
2023-01-29T12:45:24.808Z,4.60
2023-01-29T12:47:57.646Z,4.78
2023-01-29T12:50:30.227Z,4.66
2023-01-29T12:53:07.427Z,4.56
2023-01-29T12:55:43.735Z,4.63
2023-01-29T12:58:16.688Z,4.46
2023-01-29T13:00:51.185Z,4.51
2023-01-29T13:03:27.244Z,4.56
2023-01-29T13:06:00.744Z,4.61
2023-01-29T13:08:37.312Z,4.75
2023-01-29T13:11:14.050Z,4.57
2023-01-29T13:13:54.137Z,4.39
2023-01-29T13:16:30.449Z,4.33
2023-01-29T13:19:03.480Z,4.29
2023-01-29T13:21:39.555Z,4.40
2023-01-29T13:24:16.346Z,4.33
2023-01-29T13:26:46.475Z,4.26
2023-01-29T13:29:25.099Z,4.32
2023-01-29T13:31:57.207Z,4.42
2023-01-29T13:34:31.601Z,4.30
2023-01-29T13:37:04.457Z,4.22
2023-01-29T13:39:37.607Z,4.25
2023-01-29T13:42:20.851Z,4.24
2023-01-29T13:44:51.890Z,4.24
2023-01-29T13:47:27.735Z,4.26
2023-01-29T13:50:00.131Z,4.28
2023-01-29T13:52:37.219Z,4.37
2023-01-29T13:55:26.071Z,4.35
2023-01-29T13:57:56.555Z,4.29
2023-01-29T14:00:51.774Z,4.46
2023-01-29T14:04:05.787Z,4.46
2023-01-29T14:06:50.382Z,4.42
2023-01-29T14:10:03.297Z,4.58
2023-01-29T14:12:45.516Z,4.39
2023-01-29T14:15:28.760Z,4.40
2023-01-29T14:18:16.172Z,4.31
2023-01-29T14:21:02.198Z,4.30
2023-01-29T14:23:41.314Z,4.21
2023-01-29T14:26:33.046Z,4.20
2023-01-29T14:29:06.825Z,4.16
2023-01-29T14:31:43.898Z,4.17
2023-01-29T14:34:23.421Z,4.10
2023-01-29T14:36:56.220Z,4.24
2023-01-29T14:39:37.930Z,4.28
2023-01-29T14:42:24.551Z,4.17
2023-01-29T14:45:08.665Z,4.21
2023-01-29T14:48:34.986Z,4.17
2023-01-29T14:51:10.901Z,4.25
2023-01-29T14:54:02.428Z,4.05
2023-01-29T14:56:36.024Z,3.94
2023-01-29T14:59:18.915Z,4.05
2023-01-29T15:01:53.619Z,4.18
2023-01-29T15:04:27.449Z,4.14
2023-01-29T15:07:04.413Z,4.00
2023-01-29T15:09:45.645Z,4.03
2023-01-29T15:12:27.725Z,4.09
2023-01-29T15:15:10.171Z,4.04
2023-01-29T15:17:52.334Z,4.00
2023-01-29T15:20:29.944Z,3.97
2023-01-29T15:22:58.011Z,4.04
2023-01-29T15:25:34.730Z,4.08
2023-01-29T15:28:08.568Z,4.07
2023-01-29T15:30:38.023Z,4.00
2023-01-29T15:33:11.638Z,3.97
2023-01-29T15:35:42.301Z,3.91
2023-01-29T15:38:18.401Z,3.92
2023-01-29T15:40:57.797Z,3.96
2023-01-29T15:43:28.639Z,3.92
2023-01-29T15:46:01.640Z,3.87
2023-01-29T15:48:36.246Z,3.89
2023-01-29T15:51:07.832Z,3.99
2023-01-29T15:53:42.087Z,3.96
2023-01-29T15:56:15.892Z,3.95
2023-01-29T15:58:49.623Z,3.84
2023-01-29T16:01:18.187Z,3.93
2023-01-29T16:03:52.494Z,3.89
2023-01-29T16:06:22.310Z,3.97
2023-01-29T16:08:54.348Z,3.96
2023-01-29T16:11:24.452Z,3.89
2023-01-29T16:13:53.828Z,3.88
2023-01-29T16:16:26.194Z,3.78
2023-01-29T16:19:00.558Z,3.66
2023-01-29T16:21:34.071Z,3.62
2023-01-29T16:24:09.727Z,3.66
2023-01-29T16:26:46.611Z,3.67
2023-01-29T16:29:21.434Z,3.63
2023-01-29T16:31:54.836Z,3.57
2023-01-29T16:34:28.673Z,3.61
2023-01-29T16:36:58.204Z,3.63
2023-01-29T16:39:32.819Z,3.54
2023-01-29T16:42:23.537Z,3.60
2023-01-29T16:44:55.931Z,3.63
2023-01-29T16:47:30.616Z,3.68
2023-01-29T16:50:00.997Z,3.65
2023-01-29T16:52:32.586Z,3.72
2023-01-29T16:55:19.595Z,3.83
2023-01-29T16:57:54.254Z,3.66
2023-01-29T17:00:27.055Z,3.69
2023-01-29T17:03:01.869Z,3.78
2023-01-29T17:05:38.531Z,3.75
2023-01-29T17:08:08.009Z,3.73
2023-01-29T17:10:36.093Z,3.85
2023-01-29T17:13:09.125Z,3.85
2023-01-29T17:15:45.866Z,3.84
2023-01-29T17:18:19.569Z,3.83
2023-01-29T17:20:49.120Z,3.85
2023-01-29T17:23:17.223Z,3.87
2023-01-29T17:25:46.364Z,3.93
2023-01-29T17:28:17.393Z,3.87
2023-01-29T17:30:56.547Z,3.92
2023-01-29T17:33:33.815Z,3.97
2023-01-29T17:36:01.649Z,3.95
2023-01-29T17:38:29.541Z,3.96
2023-01-29T17:41:02.235Z,3.92
2023-01-29T17:43:31.492Z,3.96
2023-01-29T17:45:59.308Z,4.03
2023-01-29T17:48:29.988Z,3.88
2023-01-29T17:51:02.735Z,3.87
2023-01-29T17:53:45.417Z,3.97
2023-01-29T17:56:17.176Z,3.99
2023-01-29T17:58:46.614Z,3.94
2023-01-29T18:01:14.758Z,3.95
2023-01-29T18:03:42.683Z,4.02
2023-01-29T18:06:21.492Z,4.06
2023-01-29T18:08:49.689Z,4.07
2023-01-29T18:11:17.652Z,4.04
2023-01-29T18:13:47.451Z,4.05
2023-01-29T18:16:18.735Z,3.96
2023-01-29T18:18:46.849Z,3.85
2023-01-29T18:21:14.869Z,3.94
2023-01-29T18:23:43.017Z,3.92
2023-01-29T18:26:12.391Z,3.95
2023-01-29T18:28:43.350Z,3.86
2023-01-29T18:31:14.457Z,3.83
2023-01-29T18:33:42.598Z,3.66
2023-01-29T18:36:10.961Z,3.62
2023-01-29T18:38:39.093Z,3.56
2023-01-29T18:41:11.697Z,3.51
2023-01-29T18:43:41.389Z,3.38
2023-01-29T18:46:09.823Z,3.31
2023-01-29T18:48:41.566Z,3.29
2023-01-29T18:51:10.513Z,3.34
2023-01-29T18:53:38.504Z,3.30
2023-01-29T18:56:08.095Z,3.31
2023-01-29T18:58:37.195Z,3.35
2023-01-29T19:01:09.713Z,3.38
2023-01-29T19:03:41.207Z,3.43
2023-01-29T19:06:11.170Z,3.33
2023-01-29T19:08:40.780Z,3.42
2023-01-29T19:11:09.035Z,3.38
2023-01-29T19:13:38.006Z,3.43
2023-01-29T19:16:08.991Z,3.47
2023-01-29T19:18:37.319Z,3.51
2023-01-29T19:21:12.613Z,3.49
2023-01-29T19:23:42.260Z,3.52
2023-01-29T19:26:11.375Z,3.59
2023-01-29T19:28:39.755Z,3.64
2023-01-29T19:31:09.275Z,3.59
2023-01-29T19:33:37.334Z,3.66
2023-01-29T19:36:06.558Z,3.61
2023-01-29T19:38:38.624Z,3.54
2023-01-29T19:41:06.855Z,3.66
2023-01-29T19:43:34.982Z,3.73
2023-01-29T19:46:03.043Z,3.72
2023-01-29T19:48:30.987Z,3.70
2023-01-29T19:51:01.654Z,3.74
2023-01-29T19:53:31.551Z,3.77
2023-01-29T19:56:04.849Z,3.80
2023-01-29T19:58:34.134Z,3.89
2023-01-29T20:01:05.287Z,3.88
2023-01-29T20:03:38.079Z,3.96
2023-01-29T20:06:07.060Z,3.97
2023-01-29T20:08:35.886Z,3.98
2023-01-29T20:11:05.741Z,3.97
2023-01-29T20:13:34.029Z,3.98
2023-01-29T20:16:03.789Z,4.00
2023-01-29T20:18:32.602Z,4.08
2023-01-29T20:21:07.168Z,3.97
2023-01-29T20:23:38.480Z,4.06
2023-01-29T20:26:12.490Z,4.12
2023-01-29T20:28:41.798Z,4.10
2023-01-29T20:31:10.684Z,4.09
2023-01-29T20:33:40.374Z,4.11
2023-01-29T20:36:12.172Z,4.16
2023-01-29T20:38:41.021Z,4.23
2023-01-29T20:41:14.905Z,4.18
2023-01-29T20:43:44.274Z,4.19
2023-01-29T20:46:13.477Z,4.24
2023-01-29T20:48:42.136Z,4.26
2023-01-29T20:51:15.414Z,4.16
2023-01-29T20:53:45.808Z,4.27
2023-01-29T20:56:17.166Z,4.34
2023-01-29T20:58:46.879Z,4.43
2023-01-29T21:01:21.794Z,4.43
2023-01-29T21:03:49.869Z,4.47
2023-01-29T21:06:17.982Z,4.58
2023-01-29T21:08:46.124Z,4.50
2023-01-29T21:11:15.757Z,4.41
2023-01-29T21:13:43.950Z,4.51
2023-01-29T21:16:12.366Z,4.54
2023-01-29T21:18:40.455Z,4.53
2023-01-29T21:21:08.517Z,4.56
2023-01-29T21:23:36.547Z,4.53
2023-01-29T21:26:09.183Z,4.47
2023-01-29T21:28:38.976Z,4.53
2023-01-29T21:31:12.149Z,4.46
2023-01-29T21:33:41.003Z,4.54
2023-01-29T21:36:14.045Z,4.49
2023-01-29T21:38:42.514Z,4.57
2023-01-29T21:41:10.576Z,4.57
2023-01-29T21:43:40.061Z,4.54
2023-01-29T21:46:11.970Z,4.62
2023-01-29T21:48:40.538Z,4.54
2023-01-29T21:51:09.014Z,4.45
2023-01-29T21:53:37.286Z,4.33
2023-01-29T21:56:06.510Z,4.34
2023-01-29T21:58:34.531Z,4.30
2023-01-29T22:01:11.511Z,4.47
2023-01-29T22:03:51.895Z,4.31
2023-01-29T22:06:20.090Z,4.60
2023-01-29T22:08:49.693Z,4.52
2023-01-29T22:11:18.175Z,4.59
2023-01-29T22:13:46.871Z,4.54
2023-01-29T22:16:16.328Z,4.47
2023-01-29T22:18:44.783Z,4.61
2023-01-29T22:21:12.805Z,4.57
2023-01-29T22:23:41.318Z,4.51
2023-01-29T22:26:12.075Z,4.77
2023-01-29T22:28:40.500Z,4.73
2023-01-29T22:31:08.517Z,4.80
2023-01-29T22:33:37.951Z,4.85
2023-01-29T22:36:07.592Z,4.83
2023-01-29T22:38:35.726Z,4.86
2023-01-29T22:41:04.634Z,4.85
2023-01-29T22:43:32.711Z,4.93
2023-01-29T22:46:00.829Z,4.82
2023-01-29T22:48:30.530Z,4.91
2023-01-29T22:51:13.596Z,4.92
2023-01-29T22:53:44.347Z,4.96
2023-01-29T22:56:12.495Z,4.92
2023-01-29T22:58:41.135Z,5.04
2023-01-29T23:01:10.450Z,4.96
2023-01-29T23:03:38.468Z,4.95
2023-01-29T23:06:11.049Z,5.02
2023-01-29T23:08:39.388Z,4.94
2023-01-29T23:11:14.717Z,4.93
2023-01-29T23:13:44.901Z,5.02
2023-01-29T23:16:14.353Z,5.06
2023-01-29T23:18:43.263Z,5.10
2023-01-29T23:21:12.735Z,4.95
2023-01-29T23:23:41.151Z,5.12
2023-01-29T23:26:30.035Z,5.29
2023-01-29T23:28:59.492Z,5.20
2023-01-29T23:31:27.305Z,5.13
2023-01-29T23:33:55.746Z,5.25
2023-01-29T23:36:25.262Z,5.30
2023-01-29T23:38:53.290Z,5.24
2023-01-29T23:41:21.343Z,5.20
2023-01-29T23:43:50.047Z,5.24
2023-01-29T23:46:17.787Z,5.12
2023-01-29T23:48:45.580Z,5.16
2023-01-29T23:51:13.549Z,5.17
2023-01-29T23:53:42.900Z,5.21
2023-01-29T23:56:11.676Z,5.18
2023-01-29T23:58:39.800Z,5.26
